Time;durP1;ratioP1;P1;durP2;ratioP2;P2;SDS_P1;SDS_P2;PMS_P1;PMS_P2;Temp;Humidity;BMP_temperature;BMP_pressure;BME280_temperature;BME280_humidity;BME280_pressure;Samples;Min_cycle;Max_cycle;Signal;HPM_P1;HPM_P2
2021/12/13 00:02:18;;;;;;;158.30;51.10;;;;;;;-1.69;84.09;100999.27;102838;1320;138746;-69
2021/12/13 00:04:57;;;;;;;167.60;52.70;;;;;;;-1.62;83.82;101000.16;103024;1319;108848;-67
2021/12/13 00:07:34;;;;;;;156.20;50.60;;;;;;;-1.58;83.59;101004.55;102986;1320;138363;-69
2021/12/13 00:10:11;;;;;;;163.80;51.40;;;;;;;-1.67;83.48;101007.66;103001;1320;97863;-69
2021/12/13 00:12:48;;;;;;;147.50;49.90;;;;;;;-1.71;83.73;101008.23;104182;1319;138190;-67
2021/12/13 00:15:30;;;;;;;165.40;52.00;;;;;;;-1.73;83.35;101007.84;104294;1321;109066;-68
2021/12/13 00:18:05;;;;;;;156.50;51.10;;;;;;;-1.76;83.81;101002.32;104340;1319;108678;-68
2021/12/13 00:20:41;;;;;;;140.60;46.50;;;;;;;-1.76;84.00;101004.35;103344;1324;139508;-68
2021/12/13 00:23:19;;;;;;;157.40;50.00;;;;;;;-1.73;84.11;101000.19;103065;1326;96095;-69
2021/12/13 00:25:53;;;;;;;145.00;47.10;;;;;;;-1.62;84.09;101000.66;103137;1321;138888;-68
2021/12/13 00:28:28;;;;;;;150.50;49.10;;;;;;;-1.59;83.91;101004.19;103534;1325;107803;-68
2021/12/13 00:31:16;;;;;;;154.80;49.60;;;;;;;-1.58;83.51;101009.30;103832;1321;139732;-68
2021/12/13 00:34:00;;;;;;;150.80;48.00;;;;;;;-1.67;83.29;101011.60;103677;1320;97885;-67
2021/12/13 00:36:38;;;;;;;142.10;47.00;;;;;;;-1.71;83.23;101010.64;102989;1320;97894;-67
2021/12/13 00:39:15;;;;;;;137.40;48.00;;;;;;;-1.72;83.34;101017.60;102875;1321;139161;-67
2021/12/13 00:41:50;;;;;;;159.30;52.30;;;;;;;-1.69;83.74;101013.08;102999;1321;108887;-67
2021/12/13 00:44:25;;;;;;;146.20;49.70;;;;;;;-1.60;83.97;101009.09;102908;1318;139407;-67
2021/12/13 00:47:01;;;;;;;153.00;49.10;;;;;;;-1.61;83.58;101008.89;102951;1324;97884;-68
2021/12/13 00:49:36;;;;;;;147.30;50.00;;;;;;;-1.62;83.93;101010.05;102858;1318;139403;-68
2021/12/13 00:52:09;;;;;;;148.80;49.00;;;;;;;-1.61;83.85;101010.60;102967;1320;113015;-68
2021/12/13 00:54:42;;;;;;;136.50;47.10;;;;;;;-1.60;83.73;101011.64;103935;1316;108938;-68
2021/12/13 00:57:40;;;;;;;130.60;44.80;;;;;;;-1.57;84.07;101011.75;104160;1321;138728;-68
2021/12/13 01:00:13;;;;;;;;;;;;;;;-1.46;84.10;101005.72;104245;1320;95994;-68
2021/12/13 01:02:49;;;;;;;141.40;45.80;;;;;;;-1.42;83.85;101006.54;104190;1321;124321;-69
2021/12/13 01:05:40;;;;;;;135.70;44.40;;;;;;;-1.43;83.87;101012.48;103026;1319;113024;-68
2021/12/13 01:08:31;;;;;;;130.30;44.80;;;;;;;-1.44;83.67;101017.40;102845;1319;138451;-68
2021/12/13 01:11:33;;;;;;;135.40;47.20;;;;;;;-1.52;83.69;101022.27;102982;1318;108197;-67
2021/12/13 01:14:20;;;;;;;138.90;48.00;;;;;;;-1.51;83.86;101017.18;102864;1319;138435;-68
2021/12/13 01:17:03;;;;;;;128.00;44.80;;;;;;;-1.50;83.80;101009.02;104112;1319;95956;-68
2021/12/13 01:19:50;;;;;;;143.10;46.70;;;;;;;-1.47;84.08;101004.85;102936;1318;139885;-68
2021/12/13 01:22:42;;;;;;;146.80;46.80;;;;;;;-1.46;83.95;101005.90;102933;1318;108836;-68
2021/12/13 01:25:38;;;;;;;134.50;43.90;;;;;;;-1.56;83.20;101004.11;103824;1322;139131;-68
2021/12/13 01:28:20;;;;;;;124.10;42.90;;;;;;;-1.64;83.19;101013.73;103303;1319;96657;-68
2021/12/13 01:30:55;;;;;;;135.80;44.40;;;;;;;-1.69;83.47;101018.55;104356;1321;96116;-68
2021/12/13 01:33:30;;;;;;;140.10;46.60;;;;;;;-1.69;83.66;101016.64;104194;1320;137833;-68
2021/12/13 01:36:07;;;;;;;140.60;46.80;;;;;;;-1.71;83.59;101019.84;104299;1318;109264;-68
2021/12/13 01:38:45;;;;;;;136.90;47.40;;;;;;;-1.75;83.90;101034.55;104180;1319;140127;-68
2021/12/13 01:41:21;;;;;;;137.30;48.30;;;;;;;-1.74;83.58;101023.50;104114;1319;97817;-68
2021/12/13 01:43:57;;;;;;;140.80;46.70;;;;;;;-1.67;84.04;101024.90;102920;1319;138777;-67
2021/12/13 01:46:35;;;;;;;134.10;44.30;;;;;;;-1.67;84.05;101019.08;103060;1319;112449;-67
2021/12/13 01:49:08;;;;;;;134.30;45.00;;;;;;;-1.69;83.65;101020.23;102929;1321;139200;-66
2021/12/13 01:51:41;;;;;;;127.70;43.60;;;;;;;-1.64;84.09;101015.09;102934;1320;109387;-68
2021/12/13 01:54:18;;;;;;;115.20;41.60;;;;;;;-1.58;84.39;101008.65;102957;1321;98013;-67
2021/12/13 01:56:57;;;;;;;128.30;45.80;;;;;;;-1.48;84.32;101005.15;102917;1321;138289;-68
2021/12/13 01:59:50;;;;;;;130.20;45.20;;;;;;;-1.42;84.15;100996.81;103075;1321;111287;-68
2021/12/13 02:02:27;;;;;;;129.30;44.80;;;;;;;-1.44;83.61;100994.18;103617;1320;138619;-68
2021/12/13 02:05:10;;;;;;;138.90;46.60;;;;;;;-1.44;83.82;100994.02;103267;1318;108825;-67
2021/12/13 02:07:48;;;;;;;121.50;43.90;;;;;;;-1.46;83.59;100992.94;102913;1321;139314;-68
2021/12/13 02:10:29;;;;;;;135.80;46.00;;;;;;;-1.45;83.81;100990.73;103653;1321;97850;-68
2021/12/13 02:17:22;;;;;;;127.70;43.80;;;;;;;-1.43;83.74;100998.17;103003;1322;106534;-68
2021/12/13 02:19:59;;;;;;;130.00;45.10;;;;;;;-1.41;83.60;101001.27;103055;1318;139252;-67
2021/12/13 02:22:38;;;;;;;137.90;47.60;;;;;;;-1.38;83.93;101008.19;104008;1321;97814;-67
2021/12/13 02:25:21;;;;;;;152.80;48.40;;;;;;;-1.26;84.23;101011.77;103020;1321;98410;-67
2021/12/13 02:28:00;;;;;;;144.00;48.60;;;;;;;-1.20;83.98;101005.78;102837;1318;137955;-68
2021/12/13 02:30:39;;;;;;;150.70;49.50;;;;;;;-1.19;83.38;101001.20;103164;1322;109109;-68
2021/12/13 02:33:15;;;;;;;160.70;52.10;;;;;;;-1.22;83.64;101000.11;102865;1323;138675;-68
2021/12/13 02:35:52;;;;;;;167.80;50.10;;;;;;;-1.23;83.41;100994.13;102935;1321;97980;-67
2021/12/13 02:38:25;;;;;;;157.50;46.60;;;;;;;-1.33;83.16;101000.98;103368;1321;138245;-67
2021/12/13 02:40:58;;;;;;;145.20;47.30;;;;;;;-1.47;82.88;101004.86;103005;1327;112526;-68
2021/12/13 02:43:34;;;;;;;153.50;49.10;;;;;;;-1.52;83.03;101004.71;102999;1324;139068;-67
2021/12/13 02:46:07;;;;;;;137.80;47.30;;;;;;;-1.54;83.27;101000.22;104281;1320;108932;-69
2021/12/13 02:48:43;;;;;;;140.20;48.90;;;;;;;-1.53;83.74;100998.38;103233;1321;97855;-67
2021/12/13 02:51:22;;;;;;;147.10;48.20;;;;;;;-1.51;83.49;101006.10;104092;1321;139436;-67
2021/12/13 02:53:59;;;;;;;144.60;50.10;;;;;;;-1.47;83.77;101005.34;103047;1321;111921;-67
2021/12/13 02:56:35;;;;;;;147.60;49.20;;;;;;;-1.40;83.76;101007.62;102854;1321;138887;-68
2021/12/13 02:59:10;;;;;;;118.70;42.80;;;;;;;-1.32;83.94;101013.14;102918;1320;109062;-68
2021/12/13 03:01:45;;;;;;;129.50;42.20;;;;;;;-1.27;84.02;101013.77;102888;1321;138919;-67
2021/12/13 03:04:21;;;;;;;139.10;43.70;;;;;;;-1.26;83.58;101009.57;103035;1321;97949;-69
2021/12/13 03:06:59;;;;;;;128.60;42.50;;;;;;;-1.27;83.47;101009.36;102871;1324;112617;-68
2021/12/13 03:09:35;;;;;;;136.20;43.80;;;;;;;-1.32;83.37;101003.07;102847;1320;138542;-69
2021/12/13 03:12:10;;;;;;;149.20;44.80;;;;;;;-1.32;83.23;101005.45;103591;1318;110062;-69
2021/12/13 03:14:47;;;;;;;144.80;44.60;;;;;;;-1.35;83.03;101004.34;102999;1321;140025;-69
2021/12/13 03:17:26;;;;;;;142.70;45.60;;;;;;;-1.43;83.22;101003.78;103002;1321;99344;-68
2021/12/13 03:20:22;;;;;;;145.80;45.80;;;;;;;-1.46;83.24;101007.24;102795;1321;139350;-68
2021/12/13 03:23:18;;;;;;;139.80;44.70;;;;;;;-1.45;83.12;101005.23;102998;1321;109812;-68
2021/12/13 03:26:22;;;;;;;138.30;44.40;;;;;;;-1.48;83.32;101008.74;102903;1320;139990;-68
2021/12/13 03:29:11;;;;;;;117.10;41.10;;;;;;;-1.39;83.74;101007.99;102966;1321;97857;-68
2021/12/13 03:31:46;;;;;;;128.60;40.90;;;;;;;-1.34;83.26;101007.42;104137;1316;138772;-69
2021/12/13 03:34:22;;;;;;;128.00;42.50;;;;;;;-1.34;83.02;101007.45;104309;1321;112586;-69
2021/12/13 03:37:00;;;;;;;136.70;43.40;;;;;;;-1.32;83.31;101003.42;103449;1320;109017;-68
2021/12/13 03:39:35;;;;;;;141.00;43.70;;;;;;;-1.28;83.41;101003.17;102828;1321;138239;-68
2021/12/13 03:42:13;;;;;;;141.10;45.90;;;;;;;-1.29;82.95;101000.58;102978;1320;97887;-69
2021/12/13 03:44:49;;;;;;;134.50;44.70;;;;;;;-1.35;82.90;101003.65;102815;1315;138568;-68
2021/12/13 03:47:28;;;;;;;142.70;45.60;;;;;;;-1.38;83.26;101005.13;102916;1321;112154;-68
2021/12/13 03:50:08;;;;;;;134.10;43.60;;;;;;;-1.42;83.27;101005.02;102936;1321;142692;-68
2021/12/13 03:52:45;;;;;;;138.80;44.90;;;;;;;-1.44;83.41;101000.68;103001;1318;107896;-69
2021/12/13 03:55:20;;;;;;;126.10;41.80;;;;;;;-1.44;83.29;101000.52;102993;1321;97880;-69
2021/12/13 03:57:56;;;;;;;124.90;41.90;;;;;;;-1.41;83.49;101009.98;102893;1321;139924;-68
2021/12/13 04:00:36;;;;;;;124.10;41.80;;;;;;;-1.36;83.12;101014.55;102980;1321;112404;-68
2021/12/13 04:03:12;;;;;;;127.20;41.60;;;;;;;-1.34;83.23;101008.64;104188;1321;138165;-69
2021/12/13 04:05:46;;;;;;;123.90;40.20;;;;;;;-1.32;83.13;101009.05;103736;1318;108842;-68
2021/12/13 04:08:22;;;;;;;119.90;39.80;;;;;;;-1.35;82.90;101010.33;102882;1322;138999;-69
2021/12/13 04:10:58;;;;;;;122.40;38.90;;;;;;;-1.34;83.00;101016.15;102952;1320;97877;-68
2021/12/13 04:13:34;;;;;;;123.80;40.90;;;;;;;-1.35;82.89;101013.89;102848;1321;138936;-68
2021/12/13 04:16:14;;;;;;;120.90;39.90;;;;;;;-1.40;82.83;101014.10;103001;1318;109119;-68
2021/12/13 04:19:07;;;;;;;117.70;39.80;;;;;;;-1.45;82.61;101014.61;102889;1324;108830;-68
2021/12/13 04:21:46;;;;;;;119.10;39.10;;;;;;;-1.51;82.76;101011.38;102843;1321;140314;-68
2021/12/13 04:24:22;;;;;;;107.70;37.20;;;;;;;-1.53;82.80;101007.77;104291;1318;96306;-69
2021/12/13 04:26:54;;;;;;;;;;;;;;;-1.48;83.04;101010.97;103644;1318;138730;-69
2021/12/13 04:29:32;;;;;;;110.90;36.70;;;;;;;-1.48;83.06;101013.35;103030;1320;108313;-68
2021/12/13 04:32:17;;;;;;;106.30;37.70;;;;;;;-1.48;82.94;101009.08;102858;1321;139798;-68
2021/12/13 04:34:51;;;;;;;107.70;38.40;;;;;;;-1.46;83.07;101006.23;103183;1321;97871;-69
2021/12/13 04:37:26;;;;;;;106.70;37.20;;;;;;;-1.43;82.97;101005.84;103162;1321;98316;-69
2021/12/13 04:40:03;;;;;;;121.00;36.00;;;;;;;-1.42;83.06;101008.27;102839;1322;138339;-69
2021/12/13 04:42:36;;;;;;;112.30;37.60;;;;;;;-1.41;83.05;101009.30;102927;1319;109111;-69
2021/12/13 04:45:12;;;;;;;129.90;38.50;;;;;;;-1.39;82.95;101004.75;102867;1320;138320;-69
2021/12/13 04:47:49;;;;;;;119.80;36.80;;;;;;;-1.45;82.83;101002.70;103289;1318;97838;-67
2021/12/13 04:50:25;;;;;;;102.60;35.50;;;;;;;-1.50;82.85;101008.51;104189;1319;139447;-69
2021/12/13 04:52:58;;;;;;;110.20;35.80;;;;;;;-1.56;82.69;101016.21;103055;1318;112446;-68
2021/12/13 04:55:34;;;;;;;95.50;33.40;;;;;;;-1.63;82.78;101018.18;102946;1321;107306;-69
2021/12/13 04:58:12;;;;;;;102.80;33.30;;;;;;;-1.68;82.79;101021.45;102783;1320;139749;-68
2021/12/13 05:00:49;;;;;;;102.50;32.90;;;;;;;-1.71;82.70;101019.84;103114;1318;98046;-68
2021/12/13 05:03:25;;;;;;;101.70;33.30;;;;;;;-1.76;82.77;101017.83;102852;1320;138835;-68
2021/12/13 05:06:00;;;;;;;106.20;35.50;;;;;;;-1.78;82.77;101016.56;103056;1320;112491;-68
2021/12/13 05:08:33;;;;;;;101.10;34.60;;;;;;;-1.78;83.20;101021.02;102930;1318;139264;-68
2021/12/13 05:11:08;;;;;;;113.40;36.70;;;;;;;-1.77;83.37;101023.58;103036;1321;108904;-68
2021/12/13 05:13:47;;;;;;;122.30;37.60;;;;;;;-1.70;83.44;101022.08;102963;1321;97917;-68
2021/12/13 05:16:37;;;;;;;102.60;35.20;;;;;;;-1.64;83.59;101031.28;102892;1319;137889;-69
2021/12/13 05:19:13;;;;;;;112.00;36.30;;;;;;;-1.61;83.53;101031.23;103040;1321;112596;-69
2021/12/13 05:21:48;;;;;;;116.80;36.30;;;;;;;-1.61;83.33;101036.50;102895;1320;139136;-68
2021/12/13 05:24:23;;;;;;;113.80;37.00;;;;;;;-1.66;83.44;101035.15;103008;1319;108783;-68
2021/12/13 05:26:59;;;;;;;127.50;38.10;;;;;;;-1.67;83.08;101033.09;102851;1320;140343;-68
2021/12/13 05:29:34;;;;;;;129.50;36.50;;;;;;;-1.70;83.22;101029.42;102947;1322;97894;-68
2021/12/13 05:32:11;;;;;;;136.60;37.90;;;;;;;-1.71;83.29;101031.75;102925;1319;139001;-68
2021/12/13 05:34:44;;;;;;;;;;;;;;;-1.72;83.08;101037.02;103496;1322;106928;-69
2021/12/13 05:37:18;;;;;;;115.20;36.60;;;;;;;-1.74;83.37;101035.10;104273;1321;108769;-69
2021/12/13 05:40:00;;;;;;;110.90;37.00;;;;;;;-1.76;83.26;101036.23;103289;1321;138844;-69
2021/12/13 05:42:43;;;;;;;110.20;35.50;;;;;;;-1.82;83.16;101036.56;104309;1321;96129;-69
2021/12/13 05:45:20;;;;;;;110.70;36.40;;;;;;;-1.81;83.41;101044.60;103788;1321;138625;-69
2021/12/13 05:48:02;;;;;;;121.70;36.90;;;;;;;-1.83;83.59;101043.69;104321;1321;109074;-69
2021/12/13 05:50:39;;;;;;;125.10;38.50;;;;;;;-1.76;83.85;101047.65;104170;1321;138613;-69
2021/12/13 05:53:11;;;;;;;;;;;;;;;-1.76;83.37;101045.61;104300;1321;95860;-69
2021/12/13 05:55:57;;;;;;;111.50;35.20;;;;;;;-1.76;83.34;101054.48;103675;1322;96186;-69
2021/12/13 05:58:46;;;;;;;125.40;38.00;;;;;;;-1.71;83.60;101063.81;103040;1326;139522;-69
2021/12/13 06:01:22;;;;;;;112.20;36.80;;;;;;;-1.70;83.62;101066.06;104186;1321;109075;-69
2021/12/13 06:04:11;;;;;;;117.00;38.20;;;;;;;-1.69;83.51;101061.14;104151;1321;139665;-69
2021/12/13 06:06:49;;;;;;;102.60;36.20;;;;;;;-1.64;83.79;101066.08;104267;1320;96149;-69
2021/12/13 06:09:44;;;;;;;107.40;35.10;;;;;;;-1.62;83.47;101067.84;103137;1318;138720;-68
2021/12/13 06:12:25;;;;;;;103.60;34.10;;;;;;;-1.60;83.29;101065.38;102950;1318;112253;-68
2021/12/13 06:15:02;;;;;;;100.50;34.60;;;;;;;-1.56;83.52;101067.87;102826;1320;140568;-69
2021/12/13 06:17:39;;;;;;;101.40;36.90;;;;;;;-1.50;83.44;101067.36;102902;1320;108576;-69
2021/12/13 06:20:14;;;;;;;110.20;35.60;;;;;;;-1.47;83.58;101069.48;103681;1320;138502;-69
2021/12/13 06:22:46;;;;;;;100.20;35.50;;;;;;;-1.48;82.97;101077.97;103467;1320;97900;-69
2021/12/13 06:25:22;;;;;;;107.10;36.00;;;;;;;-1.49;83.23;101084.61;102910;1322;112539;-69
2021/12/13 06:27:59;;;;;;;115.30;36.90;;;;;;;-1.46;83.35;101084.51;102851;1321;138404;-69
2021/12/13 06:30:31;;;;;;;;;;;;;;;-1.46;83.23;101086.23;103453;1319;108659;-69
2021/12/13 06:33:08;;;;;;;107.60;35.40;;;;;;;-1.47;83.05;101087.38;102895;1320;126582;-69
2021/12/13 06:35:49;;;;;;;117.90;35.40;;;;;;;-1.46;83.18;101087.77;102709;1317;214714;-68
2021/12/13 06:38:34;;;;;;;110.30;35.20;;;;;;;-1.47;83.48;101086.38;102808;1321;139715;-68
2021/12/13 06:41:11;;;;;;;105.20;36.10;;;;;;;-1.42;83.51;101091.48;103015;1321;109695;-70
2021/12/13 06:43:48;;;;;;;109.60;36.40;;;;;;;-1.39;83.22;101095.84;102918;1321;108428;-68
2021/12/13 06:46:44;;;;;;;110.90;35.80;;;;;;;-1.40;83.45;101096.50;102742;1319;139365;-68
2021/12/13 06:49:23;;;;;;;106.00;35.30;;;;;;;-1.36;83.54;101097.11;103920;1319;96219;-69
2021/12/13 06:51:59;;;;;;;105.50;35.30;;;;;;;-1.30;83.74;101100.52;103770;1321;111491;-69
2021/12/13 06:54:36;;;;;;;107.60;38.00;;;;;;;-1.25;83.50;101102.20;103099;1321;138500;-68
2021/12/13 06:57:12;;;;;;;112.30;35.40;;;;;;;-1.18;83.65;101103.95;104261;1320;108916;-68
2021/12/13 06:59:52;;;;;;;113.00;36.20;;;;;;;-1.09;83.49;101105.73;104132;1321;138985;-69
2021/12/13 07:02:27;;;;;;;116.50;37.70;;;;;;;-0.98;84.16;101107.61;103563;1322;97994;-70
2021/12/13 07:05:09;;;;;;;110.50;36.70;;;;;;;-0.86;84.18;101111.70;103006;1320;138785;-71
2021/12/13 07:07:50;;;;;;;110.70;36.40;;;;;;;-0.83;83.32;101116.20;104226;1321;109030;-71
2021/12/13 07:10:26;;;;;;;120.50;36.70;;;;;;;-0.82;83.40;101116.92;102893;1321;140757;-68
2021/12/13 07:13:02;;;;;;;111.60;35.40;;;;;;;-0.77;83.19;101113.30;102974;1320;97910;-69
2021/12/13 07:15:40;;;;;;;112.20;36.70;;;;;;;-0.80;82.69;101118.02;103034;1320;97856;-69
2021/12/13 07:18:17;;;;;;;111.60;34.40;;;;;;;-0.82;82.76;101120.88;102527;1308;141083;-69
2021/12/13 07:20:54;;;;;;;111.60;37.20;;;;;;;-0.85;82.43;101119.91;102751;1321;108550;-71
2021/12/13 07:23:26;;;;;;;117.70;38.30;;;;;;;-0.90;82.76;101122.86;102869;1317;138493;-70
2021/12/13 07:26:02;;;;;;;117.90;38.70;;;;;;;-0.93;82.75;101125.49;102954;1320;97922;-70
2021/12/13 07:28:37;;;;;;;123.80;38.60;;;;;;;-0.92;82.77;101129.60;103111;1321;140294;-70
2021/12/13 07:31:11;;;;;;;123.40;37.90;;;;;;;-0.92;82.85;101134.90;102858;1319;111151;-71
2021/12/13 07:33:45;;;;;;;110.30;35.80;;;;;;;-0.97;82.63;101133.42;102780;1321;139869;-71
2021/12/13 07:36:22;;;;;;;117.30;38.60;;;;;;;-0.98;82.73;101136.29;102790;1320;109174;-71
2021/12/13 07:39:01;;;;;;;108.00;36.50;;;;;;;-1.02;82.40;101139.25;102800;1320;140891;-69
2021/12/13 07:41:46;;;;;;;115.80;37.70;;;;;;;-1.03;82.57;101144.16;102846;1321;97846;-68
2021/12/13 07:44:40;;;;;;;120.40;43.00;;;;;;;-0.99;82.87;101151.62;102816;1320;139612;-68
2021/12/13 07:47:16;;;;;;;126.10;37.70;;;;;;;-0.95;82.90;101152.75;102858;1320;108991;-69
2021/12/13 07:49:50;;;;;;;125.50;38.50;;;;;;;-0.97;82.44;101152.36;102973;1321;108940;-68
2021/12/13 07:52:29;;;;;;;146.00;41.60;;;;;;;-0.97;82.43;101150.30;103329;1320;139756;-69
2021/12/13 07:55:16;;;;;;;147.30;40.40;;;;;;;-0.99;82.58;101149.58;103015;1321;97875;-68
2021/12/13 07:57:49;;;;;;;124.90;38.10;;;;;;;-1.07;82.38;101150.00;104054;1321;138422;-69
2021/12/13 08:00:26;;;;;;;127.70;39.20;;;;;;;-1.15;82.35;101154.55;103064;1320;109057;-68
2021/12/13 08:03:01;;;;;;;125.60;39.80;;;;;;;-1.19;82.56;101158.88;104090;1317;139998;-68
2021/12/13 08:05:38;;;;;;;125.20;41.00;;;;;;;-1.18;82.67;101160.42;103310;1318;97893;-68
2021/12/13 08:08:20;;;;;;;118.50;38.70;;;;;;;-1.17;83.06;101162.84;102869;1320;98181;-69
2021/12/13 08:10:57;;;;;;;126.70;39.60;;;;;;;-1.12;82.97;101161.30;103935;1320;138708;-69
2021/12/13 08:13:33;;;;;;;115.50;40.50;;;;;;;-1.04;82.92;101158.99;104051;1321;106985;-68
2021/12/13 08:16:09;;;;;;;128.40;42.00;;;;;;;-1.02;82.90;101161.44;103793;1320;138876;-69
2021/12/13 08:18:43;;;;;;;138.40;40.90;;;;;;;-0.91;83.33;101158.85;104151;1320;96093;-69
2021/12/13 08:21:26;;;;;;;132.60;39.20;;;;;;;-0.92;82.65;101159.48;103967;1321;138318;-70
2021/12/13 08:24:02;;;;;;;129.70;40.20;;;;;;;-1.00;82.29;101159.09;102938;1321;112511;-67
2021/12/13 08:26:38;;;;;;;135.00;41.60;;;;;;;-1.05;82.66;101158.61;104125;1317;138401;-68
2021/12/13 08:29:17;;;;;;;129.40;39.20;;;;;;;-1.08;82.82;101155.27;103219;1316;109016;-68
2021/12/13 08:31:52;;;;;;;125.80;41.00;;;;;;;-1.07;83.10;101158.38;102799;1320;97865;-68
2021/12/13 08:34:31;;;;;;;125.00;40.10;;;;;;;-1.05;82.86;101162.21;102830;1321;138866;-68
2021/12/13 08:37:13;;;;;;;125.90;42.20;;;;;;;-1.02;83.30;101162.27;102901;1321;113183;-68
2021/12/13 08:39:48;;;;;;;114.20;38.80;;;;;;;-1.02;82.87;101165.35;102708;1324;140461;-68
2021/12/13 08:42:24;;;;;;;123.80;39.00;;;;;;;-0.98;82.96;101163.10;103876;1320;107770;-69
2021/12/13 08:45:04;;;;;;;125.60;40.10;;;;;;;-0.93;83.03;101160.48;103833;1321;140195;-68
2021/12/13 08:47:43;;;;;;;128.20;40.00;;;;;;;-0.91;82.67;101161.75;102853;1321;97860;-68
2021/12/13 08:50:20;;;;;;;119.40;39.60;;;;;;;-0.91;82.89;101160.38;104082;1318;112540;-69
2021/12/13 08:52:58;;;;;;;128.60;41.40;;;;;;;-0.91;82.84;101167.90;103084;1321;138026;-70
2021/12/13 08:55:37;;;;;;;129.80;42.10;;;;;;;-0.91;82.56;101171.31;103384;1321;107954;-69
2021/12/13 08:58:17;;;;;;;126.30;41.00;;;;;;;-0.94;82.73;101172.06;103515;1324;139836;-69
2021/12/13 09:00:56;;;;;;;123.10;42.10;;;;;;;-0.99;82.55;101172.80;102870;1321;97860;-69
2021/12/13 09:03:38;;;;;;;119.30;39.60;;;;;;;-1.02;82.39;101175.08;103819;1320;138994;-69
2021/12/13 09:06:29;;;;;;;121.60;36.10;;;;;;;-1.08;82.76;101172.19;102576;1321;109488;-69
2021/12/13 09:09:11;;;;;;;118.20;37.50;;;;;;;-1.11;82.53;101172.42;102775;1320;139116;-69
2021/12/13 09:11:51;;;;;;;119.00;40.90;;;;;;;-1.13;82.43;101173.90;102896;1320;97862;-69
2021/12/13 09:14:27;;;;;;;129.50;40.80;;;;;;;-1.13;82.73;101173.73;103384;1321;96066;-69
2021/12/13 09:17:10;;;;;;;123.60;41.40;;;;;;;-1.10;83.10;101174.31;103872;1321;138880;-67
2021/12/13 09:20:02;;;;;;;141.10;45.70;;;;;;;-1.08;83.05;101171.80;104013;1320;109158;-68
2021/12/13 09:22:37;;;;;;;130.40;39.80;;;;;;;-1.09;82.73;101172.81;102755;1323;138382;-68
2021/12/13 09:25:14;;;;;;;128.30;39.90;;;;;;;-1.10;82.82;101172.25;104106;1318;96886;-68
2021/12/13 09:27:56;;;;;;;122.70;41.00;;;;;;;-1.10;82.74;101167.48;103704;1321;139589;-69
2021/12/13 09:30:35;;;;;;;116.90;39.80;;;;;;;-1.06;82.91;101167.45;104164;1321;111560;-68
2021/12/13 09:33:12;;;;;;;114.90;39.40;;;;;;;-0.99;82.77;101164.59;103895;1320;138911;-67
2021/12/13 09:35:50;;;;;;;115.80;38.90;;;;;;;-0.95;82.74;101163.48;102799;1328;107869;-68
2021/12/13 09:38:28;;;;;;;125.20;39.50;;;;;;;-0.96;82.54;101160.74;103917;1321;97434;-69
2021/12/13 09:41:07;;;;;;;131.90;40.60;;;;;;;-0.98;82.34;101157.79;103724;1321;138380;-68
2021/12/13 09:43:46;;;;;;;123.20;39.90;;;;;;;-1.05;82.10;101157.58;103967;1317;112778;-68
2021/12/13 09:46:22;;;;;;;123.00;39.50;;;;;;;-1.08;82.61;101161.05;103478;1321;138201;-67
2021/12/13 09:48:56;;;;;;;117.70;40.20;;;;;;;-1.14;82.20;101161.22;102706;1324;109181;-68
2021/12/13 09:51:33;;;;;;;116.60;38.60;;;;;;;-1.14;82.47;101160.39;103169;1321;140954;-68
2021/12/13 09:54:08;;;;;;;121.60;40.30;;;;;;;-1.09;82.57;101158.48;102644;1321;97982;-67
2021/12/13 09:56:49;;;;;;;118.40;39.00;;;;;;;-1.12;82.09;101161.46;102481;1321;138990;-67
2021/12/13 09:59:28;;;;;;;114.10;39.10;;;;;;;-1.12;82.46;101157.54;102477;1320;140955;-67
2021/12/13 10:02:04;;;;;;;114.90;40.70;;;;;;;-1.00;82.61;101156.21;103945;1321;108590;-68
2021/12/13 10:04:37;;;;;;;;;;;;;;;-0.95;82.47;101157.19;103568;1320;138489;-67
2021/12/13 10:07:12;;;;;;;117.10;39.00;;;;;;;-0.94;82.35;101159.25;102892;1321;97749;-68
2021/12/13 10:09:48;;;;;;;126.00;42.50;;;;;;;-0.88;82.54;101165.41;102668;1321;112600;-68
2021/12/13 10:12:23;;;;;;;115.00;39.10;;;;;;;-0.88;82.21;101169.86;103423;1321;139032;-68
2021/12/13 10:14:59;;;;;;;113.20;40.60;;;;;;;-0.93;81.81;101162.89;103269;1321;109423;-69
2021/12/13 10:17:35;;;;;;;121.40;40.50;;;;;;;-0.92;81.91;101167.85;103913;1321;138284;-68
2021/12/13 10:20:11;;;;;;;111.90;39.60;;;;;;;-0.89;82.35;101170.87;103674;1321;97556;-68
2021/12/13 10:22:46;;;;;;;107.30;38.90;;;;;;;-0.85;82.19;101168.41;102595;1319;139024;-69
2021/12/13 10:25:25;;;;;;;116.40;41.40;;;;;;;-0.76;82.38;101162.70;103623;1321;107919;-69
2021/12/13 10:27:57;;;;;;;118.10;40.20;;;;;;;-0.65;82.18;101168.31;103132;1315;139495;-69
2021/12/13 10:30:35;;;;;;;114.30;40.60;;;;;;;-0.53;82.17;101165.20;102842;1321;97897;-69
2021/12/13 10:33:09;;;;;;;121.70;43.20;;;;;;;-0.41;82.16;101161.77;102430;1321;138672;-68
2021/12/13 10:35:44;;;;;;;114.80;42.50;;;;;;;-0.33;81.89;101168.18;102611;1320;112513;-70
2021/12/13 10:38:21;;;;;;;121.90;43.10;;;;;;;-0.28;81.70;101169.30;102553;1320;109040;-68
2021/12/13 10:40:57;;;;;;;125.90;43.40;;;;;;;-0.24;81.57;101169.73;102494;1317;138569;-68
2021/12/13 10:43:32;;;;;;;132.40;45.20;;;;;;;-0.22;81.63;101169.96;102580;1321;97892;-68
2021/12/13 10:46:10;;;;;;;139.20;46.20;;;;;;;-0.21;81.72;101172.72;102544;1321;138593;-68
2021/12/13 10:48:47;;;;;;;130.30;43.30;;;;;;;-0.22;81.55;101165.17;102854;1321;112252;-68
2021/12/13 10:51:25;;;;;;;127.20;45.50;;;;;;;-0.22;81.55;101162.79;102696;1321;140094;-68
2021/12/13 10:53:57;;;;;;;;;;;;;;;-0.18;81.77;101157.91;102791;1321;108993;-70
2021/12/13 10:56:32;;;;;;;132.30;43.00;;;;;;;-0.14;81.55;101156.02;102861;1321;97971;-70
2021/12/13 10:59:09;;;;;;;120.50;42.00;;;;;;;-0.10;81.75;101155.41;102755;1317;139549;-68
2021/12/13 11:01:43;;;;;;;116.80;41.50;;;;;;;-0.11;81.19;101153.86;102835;1320;112115;-69
2021/12/13 11:04:21;;;;;;;122.50;42.20;;;;;;;-0.24;80.56;101151.63;102983;1321;138671;-68
2021/12/13 11:06:54;;;;;;;121.20;42.20;;;;;;;-0.32;80.71;101150.92;102756;1320;108526;-69
2021/12/13 11:09:27;;;;;;;127.10;42.80;;;;;;;-0.35;80.80;101152.72;102518;1320;138584;-68
2021/12/13 11:12:04;;;;;;;120.00;44.00;;;;;;;-0.46;80.37;101153.29;102814;1320;97899;-70
2021/12/13 11:14:39;;;;;;;120.40;43.60;;;;;;;-0.55;80.59;101155.06;102567;1320;112764;-71
2021/12/13 11:17:14;;;;;;;127.30;42.70;;;;;;;-0.62;80.71;101156.08;103355;1324;139180;-68
2021/12/13 11:19:50;;;;;;;123.00;42.70;;;;;;;-0.69;80.80;101155.89;103302;1321;108992;-68
2021/12/13 11:22:29;;;;;;;128.10;42.30;;;;;;;-0.77;80.66;101151.72;103533;1321;138994;-67
2021/12/13 11:25:17;;;;;;;111.10;40.90;;;;;;;-0.78;81.01;101153.75;104096;1320;96191;-68
2021/12/13 11:27:49;;;;;;;113.70;41.20;;;;;;;-0.72;81.41;101153.40;103626;1322;138738;-71
2021/12/13 11:30:25;;;;;;;117.70;42.20;;;;;;;-0.66;81.52;101150.70;104174;1321;108934;-71
2021/12/13 11:33:47;;;;;;;113.70;42.20;;;;;;;-0.57;81.37;101150.06;104147;1320;108893;-70
2021/12/13 11:36:42;;;;;;;116.20;40.80;;;;;;;-0.47;81.32;101152.74;104166;1321;96084;-70
2021/12/13 11:39:47;;;;;;;121.40;42.70;;;;;;;-0.37;81.63;101161.05;103672;1321;97835;-70
2021/12/13 11:42:45;;;;;;;112.40;41.10;;;;;;;-0.31;80.85;101160.35;103002;1321;111070;-69
2021/12/13 11:45:43;;;;;;;130.90;43.20;;;;;;;-0.36;80.56;101155.59;103927;1320;109932;-69